sensor_id;sensor_type;location;lat;lon;timestamp;P1;durP1;ratioP1;P2;durP2;ratioP2
19219;SDS011;9744;49.364;7.484;2023-08-20T00:02:38;4.93;;;4.40;;
19219;SDS011;9744;49.364;7.484;2023-08-20T00:05:09;6.30;;;4.65;;
19219;SDS011;9744;49.364;7.484;2023-08-20T00:07:37;7.95;;;5.18;;
19219;SDS011;9744;49.364;7.484;2023-08-20T00:10:05;6.38;;;4.60;;
19219;SDS011;9744;49.364;7.484;2023-08-20T00:12:33;6.75;;;5.25;;
19219;SDS011;9744;49.364;7.484;2023-08-20T00:15:03;7.10;;;4.68;;
19219;SDS011;9744;49.364;7.484;2023-08-20T00:17:32;6.78;;;5.07;;
19219;SDS011;9744;49.364;7.484;2023-08-20T00:20:00;5.82;;;4.80;;
19219;SDS011;9744;49.364;7.484;2023-08-20T00:22:34;5.63;;;5.05;;
19219;SDS011;9744;49.364;7.484;2023-08-20T00:25:02;8.68;;;4.95;;
19219;SDS011;9744;49.364;7.484;2023-08-20T00:27:30;8.57;;;4.72;;
19219;SDS011;9744;49.364;7.484;2023-08-20T00:29:58;5.15;;;4.57;;
19219;SDS011;9744;49.364;7.484;2023-08-20T00:32:26;6.05;;;4.50;;
19219;SDS011;9744;49.364;7.484;2023-08-20T00:34:54;5.00;;;4.20;;
19219;SDS011;9744;49.364;7.484;2023-08-20T00:37:21;6.63;;;4.18;;
19219;SDS011;9744;49.364;7.484;2023-08-20T00:39:49;9.23;;;4.30;;
19219;SDS011;9744;49.364;7.484;2023-08-20T00:42:16;5.68;;;4.10;;
19219;SDS011;9744;49.364;7.484;2023-08-20T00:44:43;7.32;;;4.40;;
19219;SDS011;9744;49.364;7.484;2023-08-20T00:47:11;6.68;;;4.00;;
19219;SDS011;9744;49.364;7.484;2023-08-20T00:49:41;5.13;;;4.10;;
19219;SDS011;9744;49.364;7.484;2023-08-20T00:52:08;5.32;;;4.15;;
19219;SDS011;9744;49.364;7.484;2023-08-20T00:54:38;6.43;;;4.07;;
19219;SDS011;9744;49.364;7.484;2023-08-20T00:57:06;5.80;;;4.25;;
19219;SDS011;9744;49.364;7.484;2023-08-20T00:59:35;6.43;;;3.72;;
19219;SDS011;9744;49.364;7.484;2023-08-20T01:02:03;4.22;;;3.30;;
19219;SDS011;9744;49.364;7.484;2023-08-20T01:04:31;4.28;;;3.83;;
19219;SDS011;9744;49.364;7.484;2023-08-20T01:07:02;5.40;;;3.50;;
19219;SDS011;9744;49.364;7.484;2023-08-20T01:09:43;4.35;;;3.60;;
19219;SDS011;9744;49.364;7.484;2023-08-20T01:12:17;5.53;;;4.30;;
19219;SDS011;9744;49.364;7.484;2023-08-20T01:14:46;4.85;;;3.90;;
19219;SDS011;9744;49.364;7.484;2023-08-20T01:17:14;7.25;;;4.00;;
19219;SDS011;9744;49.364;7.484;2023-08-20T01:19:41;5.10;;;4.22;;
19219;SDS011;9744;49.364;7.484;2023-08-20T01:22:26;6.65;;;4.18;;
19219;SDS011;9744;49.364;7.484;2023-08-20T01:25:11;6.15;;;4.53;;
19219;SDS011;9744;49.364;7.484;2023-08-20T01:27:49;5.85;;;4.28;;
19219;SDS011;9744;49.364;7.484;2023-08-20T01:30:20;5.55;;;4.90;;
19219;SDS011;9744;49.364;7.484;2023-08-20T01:32:49;8.77;;;4.60;;
19219;SDS011;9744;49.364;7.484;2023-08-20T01:35:18;9.30;;;4.70;;
19219;SDS011;9744;49.364;7.484;2023-08-20T01:37:45;6.68;;;4.75;;
19219;SDS011;9744;49.364;7.484;2023-08-20T01:40:13;5.30;;;4.80;;
19219;SDS011;9744;49.364;7.484;2023-08-20T01:42:41;8.10;;;4.80;;
19219;SDS011;9744;49.364;7.484;2023-08-20T01:45:09;6.88;;;4.80;;
19219;SDS011;9744;49.364;7.484;2023-08-20T01:47:38;10.35;;;5.13;;
19219;SDS011;9744;49.364;7.484;2023-08-20T01:50:05;6.80;;;4.68;;
19219;SDS011;9744;49.364;7.484;2023-08-20T01:52:34;5.32;;;4.50;;
19219;SDS011;9744;49.364;7.484;2023-08-20T01:55:01;6.50;;;5.20;;
19219;SDS011;9744;49.364;7.484;2023-08-20T01:57:29;7.90;;;5.70;;
19219;SDS011;9744;49.364;7.484;2023-08-20T01:59:57;8.48;;;6.00;;
19219;SDS011;9744;49.364;7.484;2023-08-20T02:02:25;6.57;;;5.82;;
19219;SDS011;9744;49.364;7.484;2023-08-20T02:04:54;8.82;;;6.18;;
19219;SDS011;9744;49.364;7.484;2023-08-20T02:07:21;8.32;;;6.38;;
19219;SDS011;9744;49.364;7.484;2023-08-20T02:09:48;7.15;;;5.80;;
19219;SDS011;9744;49.364;7.484;2023-08-20T02:12:16;6.95;;;5.70;;
19219;SDS011;9744;49.364;7.484;2023-08-20T02:14:43;8.50;;;6.15;;
19219;SDS011;9744;49.364;7.484;2023-08-20T02:17:11;10.10;;;6.15;;
19219;SDS011;9744;49.364;7.484;2023-08-20T02:19:39;6.38;;;5.15;;
19219;SDS011;9744;49.364;7.484;2023-08-20T02:22:08;7.90;;;5.00;;
19219;SDS011;9744;49.364;7.484;2023-08-20T02:24:35;7.05;;;5.32;;
19219;SDS011;9744;49.364;7.484;2023-08-20T02:27:03;5.75;;;5.00;;
19219;SDS011;9744;49.364;7.484;2023-08-20T02:29:30;5.50;;;4.88;;
19219;SDS011;9744;49.364;7.484;2023-08-20T02:31:58;5.95;;;5.00;;
19219;SDS011;9744;49.364;7.484;2023-08-20T02:34:25;8.00;;;4.50;;
19219;SDS011;9744;49.364;7.484;2023-08-20T02:36:52;6.90;;;4.57;;
19219;SDS011;9744;49.364;7.484;2023-08-20T02:39:21;5.03;;;4.13;;
19219;SDS011;9744;49.364;7.484;2023-08-20T02:41:50;5.97;;;4.43;;
19219;SDS011;9744;49.364;7.484;2023-08-20T02:44:17;5.57;;;4.68;;
19219;SDS011;9744;49.364;7.484;2023-08-20T02:46:46;4.63;;;4.10;;
19219;SDS011;9744;49.364;7.484;2023-08-20T02:49:13;5.40;;;4.63;;
19219;SDS011;9744;49.364;7.484;2023-08-20T02:51:42;7.40;;;4.68;;
19219;SDS011;9744;49.364;7.484;2023-08-20T02:54:09;7.13;;;4.60;;
19219;SDS011;9744;49.364;7.484;2023-08-20T02:56:38;6.07;;;4.03;;
19219;SDS011;9744;49.364;7.484;2023-08-20T02:59:06;6.35;;;4.40;;
19219;SDS011;9744;49.364;7.484;2023-08-20T03:01:33;8.52;;;4.57;;
19219;SDS011;9744;49.364;7.484;2023-08-20T03:04:01;4.68;;;4.22;;
19219;SDS011;9744;49.364;7.484;2023-08-20T03:06:29;5.47;;;4.70;;
19219;SDS011;9744;49.364;7.484;2023-08-20T03:08:56;7.25;;;4.28;;
19219;SDS011;9744;49.364;7.484;2023-08-20T03:11:24;7.63;;;4.10;;
19219;SDS011;9744;49.364;7.484;2023-08-20T03:13:53;4.63;;;4.00;;
19219;SDS011;9744;49.364;7.484;2023-08-20T03:16:20;5.07;;;3.92;;
19219;SDS011;9744;49.364;7.484;2023-08-20T03:18:47;8.25;;;5.03;;
19219;SDS011;9744;49.364;7.484;2023-08-20T03:21:15;6.07;;;5.00;;
19219;SDS011;9744;49.364;7.484;2023-08-20T03:23:42;6.47;;;4.78;;
19219;SDS011;9744;49.364;7.484;2023-08-20T03:26:10;11.05;;;4.72;;
19219;SDS011;9744;49.364;7.484;2023-08-20T03:28:37;5.05;;;4.50;;
19219;SDS011;9744;49.364;7.484;2023-08-20T03:31:06;9.98;;;5.40;;
19219;SDS011;9744;49.364;7.484;2023-08-20T03:33:38;7.75;;;5.10;;
19219;SDS011;9744;49.364;7.484;2023-08-20T03:36:05;6.20;;;4.97;;
19219;SDS011;9744;49.364;7.484;2023-08-20T03:38:32;8.75;;;5.07;;
19219;SDS011;9744;49.364;7.484;2023-08-20T03:41:00;8.68;;;5.10;;
19219;SDS011;9744;49.364;7.484;2023-08-20T03:43:28;10.02;;;5.07;;
19219;SDS011;9744;49.364;7.484;2023-08-20T03:45:56;5.43;;;4.38;;
19219;SDS011;9744;49.364;7.484;2023-08-20T03:48:25;7.95;;;4.47;;
19219;SDS011;9744;49.364;7.484;2023-08-20T03:50:52;8.70;;;5.07;;
19219;SDS011;9744;49.364;7.484;2023-08-20T03:53:19;9.98;;;4.55;;
19219;SDS011;9744;49.364;7.484;2023-08-20T03:55:48;10.95;;;4.90;;
19219;SDS011;9744;49.364;7.484;2023-08-20T03:58:15;6.40;;;4.75;;
19219;SDS011;9744;49.364;7.484;2023-08-20T04:00:43;6.75;;;4.65;;
19219;SDS011;9744;49.364;7.484;2023-08-20T04:03:10;6.82;;;4.72;;
19219;SDS011;9744;49.364;7.484;2023-08-20T04:05:40;4.13;;;3.72;;
19219;SDS011;9744;49.364;7.484;2023-08-20T04:08:07;4.82;;;4.15;;
19219;SDS011;9744;49.364;7.484;2023-08-20T04:10:41;4.70;;;3.97;;
19219;SDS011;9744;49.364;7.484;2023-08-20T04:13:09;7.82;;;4.20;;
19219;SDS011;9744;49.364;7.484;2023-08-20T04:15:36;7.07;;;4.45;;
19219;SDS011;9744;49.364;7.484;2023-08-20T04:18:04;4.63;;;4.05;;
19219;SDS011;9744;49.364;7.484;2023-08-20T04:20:31;5.28;;;4.68;;
19219;SDS011;9744;49.364;7.484;2023-08-20T04:23:00;4.75;;;4.00;;
19219;SDS011;9744;49.364;7.484;2023-08-20T04:25:27;5.25;;;4.72;;
19219;SDS011;9744;49.364;7.484;2023-08-20T04:27:55;5.68;;;4.45;;
19219;SDS011;9744;49.364;7.484;2023-08-20T04:30:22;6.93;;;4.50;;
19219;SDS011;9744;49.364;7.484;2023-08-20T04:32:50;4.88;;;4.40;;
19219;SDS011;9744;49.364;7.484;2023-08-20T04:35:17;9.13;;;4.85;;
19219;SDS011;9744;49.364;7.484;2023-08-20T04:37:44;7.15;;;4.93;;
19219;SDS011;9744;49.364;7.484;2023-08-20T04:40:13;6.78;;;4.97;;
19219;SDS011;9744;49.364;7.484;2023-08-20T04:42:40;6.72;;;5.85;;
19219;SDS011;9744;49.364;7.484;2023-08-20T04:45:08;9.13;;;6.63;;
19219;SDS011;9744;49.364;7.484;2023-08-20T04:47:36;8.80;;;6.25;;
19219;SDS011;9744;49.364;7.484;2023-08-20T04:50:04;7.20;;;6.47;;
19219;SDS011;9744;49.364;7.484;2023-08-20T04:52:33;9.98;;;6.40;;
19219;SDS011;9744;49.364;7.484;2023-08-20T04:55:00;6.90;;;6.18;;
19219;SDS011;9744;49.364;7.484;2023-08-20T04:57:29;7.18;;;6.15;;
19219;SDS011;9744;49.364;7.484;2023-08-20T04:59:57;9.27;;;6.57;;
19219;SDS011;9744;49.364;7.484;2023-08-20T05:02:24;8.65;;;6.40;;
19219;SDS011;9744;49.364;7.484;2023-08-20T05:04:56;6.90;;;6.18;;
19219;SDS011;9744;49.364;7.484;2023-08-20T05:07:23;9.32;;;6.38;;
19219;SDS011;9744;49.364;7.484;2023-08-20T05:09:50;7.57;;;6.70;;
19219;SDS011;9744;49.364;7.484;2023-08-20T05:12:18;10.55;;;8.68;;
19219;SDS011;9744;49.364;7.484;2023-08-20T05:14:46;14.00;;;11.32;;
19219;SDS011;9744;49.364;7.484;2023-08-20T05:17:14;17.50;;;11.73;;
19219;SDS011;9744;49.364;7.484;2023-08-20T05:19:42;13.55;;;11.02;;
19219;SDS011;9744;49.364;7.484;2023-08-20T05:22:10;15.68;;;10.73;;
19219;SDS011;9744;49.364;7.484;2023-08-20T05:24:39;14.57;;;10.43;;
19219;SDS011;9744;49.364;7.484;2023-08-20T05:27:07;11.68;;;9.05;;
19219;SDS011;9744;49.364;7.484;2023-08-20T05:29:37;11.98;;;8.40;;
19219;SDS011;9744;49.364;7.484;2023-08-20T05:32:06;10.95;;;7.97;;
19219;SDS011;9744;49.364;7.484;2023-08-20T05:34:34;11.20;;;7.05;;
19219;SDS011;9744;49.364;7.484;2023-08-20T05:37:01;10.48;;;7.00;;
19219;SDS011;9744;49.364;7.484;2023-08-20T05:39:30;9.27;;;5.78;;
19219;SDS011;9744;49.364;7.484;2023-08-20T05:42:04;8.90;;;5.53;;
19219;SDS011;9744;49.364;7.484;2023-08-20T05:44:33;6.90;;;4.75;;
19219;SDS011;9744;49.364;7.484;2023-08-20T05:47:01;6.80;;;4.63;;
19219;SDS011;9744;49.364;7.484;2023-08-20T05:49:32;5.57;;;4.78;;
19219;SDS011;9744;49.364;7.484;2023-08-20T05:52:00;6.65;;;4.90;;
19219;SDS011;9744;49.364;7.484;2023-08-20T05:54:28;8.60;;;4.68;;
19219;SDS011;9744;49.364;7.484;2023-08-20T05:56:56;6.90;;;4.97;;
19219;SDS011;9744;49.364;7.484;2023-08-20T05:59:24;8.93;;;5.25;;
19219;SDS011;9744;49.364;7.484;2023-08-20T06:01:52;7.35;;;5.43;;
19219;SDS011;9744;49.364;7.484;2023-08-20T06:04:21;8.98;;;5.60;;
19219;SDS011;9744;49.364;7.484;2023-08-20T06:06:49;6.97;;;5.18;;
19219;SDS011;9744;49.364;7.484;2023-08-20T06:09:16;6.68;;;5.05;;
19219;SDS011;9744;49.364;7.484;2023-08-20T06:11:44;7.43;;;5.93;;
19219;SDS011;9744;49.364;7.484;2023-08-20T06:14:12;9.68;;;6.28;;
19219;SDS011;9744;49.364;7.484;2023-08-20T06:16:39;9.27;;;7.10;;
19219;SDS011;9744;49.364;7.484;2023-08-20T06:19:06;7.70;;;6.43;;
19219;SDS011;9744;49.364;7.484;2023-08-20T06:21:34;8.40;;;6.60;;
19219;SDS011;9744;49.364;7.484;2023-08-20T06:24:03;6.60;;;5.90;;
19219;SDS011;9744;49.364;7.484;2023-08-20T06:26:30;9.35;;;6.00;;
19219;SDS011;9744;49.364;7.484;2023-08-20T06:28:58;7.38;;;6.38;;
19219;SDS011;9744;49.364;7.484;2023-08-20T06:31:25;7.45;;;6.15;;
19219;SDS011;9744;49.364;7.484;2023-08-20T06:33:52;7.35;;;6.05;;
19219;SDS011;9744;49.364;7.484;2023-08-20T06:36:19;10.13;;;6.05;;
19219;SDS011;9744;49.364;7.484;2023-08-20T06:38:47;7.75;;;5.88;;
19219;SDS011;9744;49.364;7.484;2023-08-20T06:41:15;9.15;;;6.55;;
19219;SDS011;9744;49.364;7.484;2023-08-20T06:43:44;7.25;;;5.57;;
19219;SDS011;9744;49.364;7.484;2023-08-20T06:46:11;9.95;;;5.97;;
19219;SDS011;9744;49.364;7.484;2023-08-20T06:48:38;10.65;;;5.60;;
19219;SDS011;9744;49.364;7.484;2023-08-20T06:51:10;12.38;;;5.90;;
19219;SDS011;9744;49.364;7.484;2023-08-20T06:53:39;6.65;;;5.18;;
19219;SDS011;9744;49.364;7.484;2023-08-20T06:56:06;6.70;;;5.72;;
19219;SDS011;9744;49.364;7.484;2023-08-20T06:58:35;7.90;;;5.45;;
19219;SDS011;9744;49.364;7.484;2023-08-20T07:01:02;9.05;;;5.47;;
19219;SDS011;9744;49.364;7.484;2023-08-20T07:03:33;8.30;;;5.93;;
19219;SDS011;9744;49.364;7.484;2023-08-20T07:06:01;6.38;;;5.65;;
19219;SDS011;9744;49.364;7.484;2023-08-20T07:08:29;8.93;;;6.25;;
19219;SDS011;9744;49.364;7.484;2023-08-20T07:10:57;7.78;;;6.32;;
19219;SDS011;9744;49.364;7.484;2023-08-20T07:13:24;8.90;;;6.18;;
19219;SDS011;9744;49.364;7.484;2023-08-20T07:15:53;12.88;;;7.05;;
19219;SDS011;9744;49.364;7.484;2023-08-20T07:18:21;10.57;;;6.95;;
19219;SDS011;9744;49.364;7.484;2023-08-20T07:20:49;13.10;;;7.63;;
19219;SDS011;9744;49.364;7.484;2023-08-20T07:23:17;9.48;;;6.45;;
19219;SDS011;9744;49.364;7.484;2023-08-20T07:25:44;10.57;;;7.35;;
19219;SDS011;9744;49.364;7.484;2023-08-20T07:28:12;9.82;;;7.05;;
19219;SDS011;9744;49.364;7.484;2023-08-20T07:30:39;8.95;;;7.38;;
19219;SDS011;9744;49.364;7.484;2023-08-20T07:33:08;10.88;;;6.93;;
19219;SDS011;9744;49.364;7.484;2023-08-20T07:35:35;12.80;;;7.20;;
19219;SDS011;9744;49.364;7.484;2023-08-20T07:38:03;10.90;;;7.55;;
19219;SDS011;9744;49.364;7.484;2023-08-20T07:40:30;10.55;;;6.80;;
19219;SDS011;9744;49.364;7.484;2023-08-20T07:42:57;10.07;;;6.18;;
19219;SDS011;9744;49.364;7.484;2023-08-20T07:45:24;10.93;;;6.85;;
19219;SDS011;9744;49.364;7.484;2023-08-20T07:47:52;7.53;;;5.93;;
19219;SDS011;9744;49.364;7.484;2023-08-20T07:50:20;10.38;;;5.50;;
19219;SDS011;9744;49.364;7.484;2023-08-20T07:52:48;8.55;;;5.50;;
19219;SDS011;9744;49.364;7.484;2023-08-20T07:55:15;7.68;;;5.00;;
19219;SDS011;9744;49.364;7.484;2023-08-20T07:57:42;6.85;;;4.97;;
19219;SDS011;9744;49.364;7.484;2023-08-20T08:00:10;5.25;;;4.70;;
19219;SDS011;9744;49.364;7.484;2023-08-20T08:02:39;9.55;;;4.63;;
19219;SDS011;9744;49.364;7.484;2023-08-20T08:05:07;7.28;;;5.28;;
19219;SDS011;9744;49.364;7.484;2023-08-20T08:07:36;10.55;;;4.65;;
19219;SDS011;9744;49.364;7.484;2023-08-20T08:10:03;8.40;;;4.80;;
19219;SDS011;9744;49.364;7.484;2023-08-20T08:12:31;5.90;;;4.00;;
19219;SDS011;9744;49.364;7.484;2023-08-20T08:14:58;5.28;;;3.90;;
19219;SDS011;9744;49.364;7.484;2023-08-20T08:17:25;11.20;;;4.78;;
19219;SDS011;9744;49.364;7.484;2023-08-20T08:19:52;8.82;;;4.22;;
19219;SDS011;9744;49.364;7.484;2023-08-20T08:22:20;7.70;;;3.75;;
19219;SDS011;9744;49.364;7.484;2023-08-20T08:24:49;5.18;;;3.47;;
19219;SDS011;9744;49.364;7.484;2023-08-20T08:27:16;4.88;;;3.47;;
19219;SDS011;9744;49.364;7.484;2023-08-20T08:29:44;4.30;;;3.20;;
19219;SDS011;9744;49.364;7.484;2023-08-20T08:32:12;4.60;;;3.60;;
19219;SDS011;9744;49.364;7.484;2023-08-20T08:34:39;3.60;;;3.22;;
19219;SDS011;9744;49.364;7.484;2023-08-20T08:37:06;9.82;;;4.28;;
19219;SDS011;9744;49.364;7.484;2023-08-20T08:39:33;6.15;;;3.85;;
19219;SDS011;9744;49.364;7.484;2023-08-20T08:42:03;4.18;;;3.63;;
19219;SDS011;9744;49.364;7.484;2023-08-20T08:44:33;4.45;;;3.40;;
19219;SDS011;9744;49.364;7.484;2023-08-20T08:47:01;5.07;;;3.47;;
19219;SDS011;9744;49.364;7.484;2023-08-20T08:49:29;5.85;;;3.30;;
19219;SDS011;9744;49.364;7.484;2023-08-20T08:51:57;7.38;;;3.42;;
19219;SDS011;9744;49.364;7.484;2023-08-20T08:54:25;4.72;;;3.17;;
19219;SDS011;9744;49.364;7.484;2023-08-20T08:56:53;7.85;;;3.50;;
19219;SDS011;9744;49.364;7.484;2023-08-20T08:59:22;5.03;;;3.40;;
19219;SDS011;9744;49.364;7.484;2023-08-20T09:01:49;6.57;;;3.40;;
19219;SDS011;9744;49.364;7.484;2023-08-20T09:04:16;4.40;;;3.30;;
19219;SDS011;9744;49.364;7.484;2023-08-20T09:06:44;3.80;;;3.35;;
19219;SDS011;9744;49.364;7.484;2023-08-20T09:09:13;6.80;;;3.78;;
19219;SDS011;9744;49.364;7.484;2023-08-20T09:11:40;4.25;;;3.38;;
19219;SDS011;9744;49.364;7.484;2023-08-20T09:14:07;5.35;;;3.40;;
19219;SDS011;9744;49.364;7.484;2023-08-20T09:16:36;4.68;;;2.92;;
19219;SDS011;9744;49.364;7.484;2023-08-20T09:19:03;4.60;;;3.13;;
19219;SDS011;9744;49.364;7.484;2023-08-20T09:21:31;3.45;;;2.75;;
19219;SDS011;9744;49.364;7.484;2023-08-20T09:24:00;4.90;;;3.35;;
19219;SDS011;9744;49.364;7.484;2023-08-20T09:26:28;5.10;;;2.88;;
19219;SDS011;9744;49.364;7.484;2023-08-20T09:28:56;4.07;;;3.10;;
19219;SDS011;9744;49.364;7.484;2023-08-20T09:31:38;8.77;;;3.35;;
19219;SDS011;9744;49.364;7.484;2023-08-20T09:34:11;5.80;;;2.95;;
19219;SDS011;9744;49.364;7.484;2023-08-20T09:36:39;6.28;;;3.20;;
19219;SDS011;9744;49.364;7.484;2023-08-20T09:39:07;5.28;;;2.95;;
19219;SDS011;9744;49.364;7.484;2023-08-20T09:41:34;6.75;;;2.83;;
19219;SDS011;9744;49.364;7.484;2023-08-20T09:44:04;3.05;;;2.70;;
19219;SDS011;9744;49.364;7.484;2023-08-20T09:46:32;3.28;;;2.83;;
19219;SDS011;9744;49.364;7.484;2023-08-20T09:49:03;3.85;;;2.45;;
19219;SDS011;9744;49.364;7.484;2023-08-20T09:51:33;6.75;;;2.70;;
19219;SDS011;9744;49.364;7.484;2023-08-20T09:54:06;3.80;;;2.78;;
19219;SDS011;9744;49.364;7.484;2023-08-20T09:56:40;6.05;;;2.90;;
19219;SDS011;9744;49.364;7.484;2023-08-20T09:59:09;2.83;;;2.60;;
19219;SDS011;9744;49.364;7.484;2023-08-20T10:01:37;4.22;;;2.72;;
19219;SDS011;9744;49.364;7.484;2023-08-20T10:04:06;6.78;;;2.67;;
19219;SDS011;9744;49.364;7.484;2023-08-20T10:06:34;4.15;;;2.30;;
19219;SDS011;9744;49.364;7.484;2023-08-20T10:09:03;3.03;;;2.13;;
19219;SDS011;9744;49.364;7.484;2023-08-20T10:11:31;3.35;;;2.30;;
19219;SDS011;9744;49.364;7.484;2023-08-20T10:13:58;4.55;;;2.00;;
19219;SDS011;9744;49.364;7.484;2023-08-20T10:16:26;6.70;;;2.72;;
19219;SDS011;9744;49.364;7.484;2023-08-20T10:18:53;3.42;;;2.53;;
19219;SDS011;9744;49.364;7.484;2023-08-20T10:21:25;7.32;;;2.22;;
19219;SDS011;9744;49.364;7.484;2023-08-20T10:23:53;3.95;;;3.55;;
19219;SDS011;9744;49.364;7.484;2023-08-20T10:26:21;5.90;;;3.10;;
19219;SDS011;9744;49.364;7.484;2023-08-20T10:28:49;4.63;;;3.50;;
19219;SDS011;9744;49.364;7.484;2023-08-20T10:31:16;3.42;;;3.13;;
19219;SDS011;9744;49.364;7.484;2023-08-20T10:33:50;7.47;;;3.10;;
19219;SDS011;9744;49.364;7.484;2023-08-20T10:36:21;3.13;;;2.88;;
19219;SDS011;9744;49.364;7.484;2023-08-20T10:38:54;4.43;;;2.25;;
19219;SDS011;9744;49.364;7.484;2023-08-20T10:41:26;5.18;;;2.40;;
19219;SDS011;9744;49.364;7.484;2023-08-20T10:43:56;5.78;;;2.60;;
19219;SDS011;9744;49.364;7.484;2023-08-20T10:46:25;2.85;;;2.33;;
19219;SDS011;9744;49.364;7.484;2023-08-20T10:48:55;4.47;;;2.30;;
19219;SDS011;9744;49.364;7.484;2023-08-20T10:51:24;3.33;;;2.03;;
19219;SDS011;9744;49.364;7.484;2023-08-20T10:54:04;2.72;;;2.00;;
19219;SDS011;9744;49.364;7.484;2023-08-20T10:56:39;2.88;;;2.20;;
19219;SDS011;9744;49.364;7.484;2023-08-20T10:59:09;2.92;;;2.17;;
19219;SDS011;9744;49.364;7.484;2023-08-20T11:01:42;6.63;;;2.50;;
19219;SDS011;9744;49.364;7.484;2023-08-20T11:04:10;7.97;;;2.53;;
19219;SDS011;9744;49.364;7.484;2023-08-20T11:06:40;4.28;;;2.40;;
19219;SDS011;9744;49.364;7.484;2023-08-20T11:09:08;4.70;;;2.45;;
19219;SDS011;9744;49.364;7.484;2023-08-20T11:11:37;4.60;;;2.47;;
19219;SDS011;9744;49.364;7.484;2023-08-20T11:14:05;3.75;;;2.30;;
19219;SDS011;9744;49.364;7.484;2023-08-20T11:16:33;3.95;;;2.30;;
19219;SDS011;9744;49.364;7.484;2023-08-20T11:19:03;3.33;;;2.30;;
19219;SDS011;9744;49.364;7.484;2023-08-20T11:21:34;3.08;;;2.30;;
19219;SDS011;9744;49.364;7.484;2023-08-20T11:24:02;3.38;;;2.17;;
19219;SDS011;9744;49.364;7.484;2023-08-20T11:26:31;5.05;;;2.10;;
19219;SDS011;9744;49.364;7.484;2023-08-20T11:28:59;2.92;;;2.40;;
19219;SDS011;9744;49.364;7.484;2023-08-20T11:31:28;3.72;;;2.50;;
19219;SDS011;9744;49.364;7.484;2023-08-20T11:33:56;3.35;;;2.10;;
19219;SDS011;9744;49.364;7.484;2023-08-20T11:36:24;2.47;;;2.15;;
19219;SDS011;9744;49.364;7.484;2023-08-20T11:38:51;2.08;;;1.92;;
19219;SDS011;9744;49.364;7.484;2023-08-20T11:41:20;3.20;;;1.88;;
19219;SDS011;9744;49.364;7.484;2023-08-20T11:43:49;6.35;;;2.10;;
19219;SDS011;9744;49.364;7.484;2023-08-20T11:46:18;2.65;;;2.22;;
19219;SDS011;9744;49.364;7.484;2023-08-20T11:48:58;6.15;;;2.40;;
19219;SDS011;9744;49.364;7.484;2023-08-20T11:51:28;3.33;;;2.60;;
19219;SDS011;9744;49.364;7.484;2023-08-20T11:53:56;3.08;;;2.20;;
19219;SDS011;9744;49.364;7.484;2023-08-20T11:56:23;2.30;;;2.10;;
19219;SDS011;9744;49.364;7.484;2023-08-20T11:58:52;3.10;;;2.30;;
19219;SDS011;9744;49.364;7.484;2023-08-20T12:01:22;2.70;;;2.50;;
19219;SDS011;9744;49.364;7.484;2023-08-20T12:03:50;7.25;;;2.42;;
19219;SDS011;9744;49.364;7.484;2023-08-20T12:06:18;6.60;;;2.50;;
19219;SDS011;9744;49.364;7.484;2023-08-20T12:08:46;6.28;;;2.30;;
19219;SDS011;9744;49.364;7.484;2023-08-20T12:11:13;5.43;;;2.20;;
19219;SDS011;9744;49.364;7.484;2023-08-20T12:13:41;4.25;;;1.83;;
19219;SDS011;9744;49.364;7.484;2023-08-20T12:16:09;4.40;;;2.28;;
19219;SDS011;9744;49.364;7.484;2023-08-20T12:18:37;3.10;;;2.50;;
19219;SDS011;9744;49.364;7.484;2023-08-20T12:21:04;3.17;;;2.53;;
19219;SDS011;9744;49.364;7.484;2023-08-20T12:23:31;4.50;;;2.33;;
19219;SDS011;9744;49.364;7.484;2023-08-20T12:25:58;2.20;;;1.95;;
19219;SDS011;9744;49.364;7.484;2023-08-20T12:28:26;4.82;;;2.35;;
19219;SDS011;9744;49.364;7.484;2023-08-20T12:30:53;5.13;;;2.50;;
19219;SDS011;9744;49.364;7.484;2023-08-20T12:33:22;2.85;;;2.53;;
19219;SDS011;9744;49.364;7.484;2023-08-20T12:35:49;3.42;;;2.10;;
19219;SDS011;9744;49.364;7.484;2023-08-20T12:38:16;9.13;;;2.30;;
19219;SDS011;9744;49.364;7.484;2023-08-20T12:40:43;3.72;;;2.50;;
19219;SDS011;9744;49.364;7.484;2023-08-20T12:43:11;2.33;;;2.10;;
19219;SDS011;9744;49.364;7.484;2023-08-20T12:45:38;6.72;;;2.80;;
19219;SDS011;9744;49.364;7.484;2023-08-20T12:48:05;5.43;;;2.70;;
19219;SDS011;9744;49.364;7.484;2023-08-20T12:50:36;3.50;;;2.45;;
19219;SDS011;9744;49.364;7.484;2023-08-20T12:53:03;3.17;;;2.28;;
19219;SDS011;9744;49.364;7.484;2023-08-20T12:55:30;4.35;;;2.38;;
19219;SDS011;9744;49.364;7.484;2023-08-20T12:57:58;3.88;;;2.28;;
19219;SDS011;9744;49.364;7.484;2023-08-20T13:00:26;5.25;;;2.70;;
19219;SDS011;9744;49.364;7.484;2023-08-20T13:02:53;4.57;;;2.83;;
19219;SDS011;9744;49.364;7.484;2023-08-20T13:05:21;5.15;;;2.60;;
19219;SDS011;9744;49.364;7.484;2023-08-20T13:07:51;5.78;;;3.03;;
19219;SDS011;9744;49.364;7.484;2023-08-20T13:10:19;4.00;;;2.28;;
19219;SDS011;9744;49.364;7.484;2023-08-20T13:12:48;2.67;;;2.40;;
19219;SDS011;9744;49.364;7.484;2023-08-20T13:15:19;4.57;;;2.60;;
19219;SDS011;9744;49.364;7.484;2023-08-20T13:17:48;2.30;;;2.10;;
19219;SDS011;9744;49.364;7.484;2023-08-20T13:20:16;3.05;;;2.05;;
19219;SDS011;9744;49.364;7.484;2023-08-20T13:22:46;7.00;;;2.50;;
19219;SDS011;9744;49.364;7.484;2023-08-20T13:25:15;3.75;;;2.20;;
19219;SDS011;9744;49.364;7.484;2023-08-20T13:27:42;4.47;;;2.40;;
19219;SDS011;9744;49.364;7.484;2023-08-20T13:30:10;3.28;;;2.20;;
19219;SDS011;9744;49.364;7.484;2023-08-20T13:32:38;4.45;;;2.13;;
19219;SDS011;9744;49.364;7.484;2023-08-20T13:35:08;3.25;;;2.00;;
19219;SDS011;9744;49.364;7.484;2023-08-20T13:37:35;6.07;;;2.40;;
19219;SDS011;9744;49.364;7.484;2023-08-20T13:40:03;3.72;;;1.80;;
19219;SDS011;9744;49.364;7.484;2023-08-20T13:42:33;5.13;;;2.20;;
19219;SDS011;9744;49.364;7.484;2023-08-20T13:45:01;2.65;;;2.00;;
19219;SDS011;9744;49.364;7.484;2023-08-20T13:47:29;4.20;;;2.17;;
19219;SDS011;9744;49.364;7.484;2023-08-20T13:49:56;3.35;;;2.08;;
19219;SDS011;9744;49.364;7.484;2023-08-20T13:52:24;3.63;;;2.10;;
19219;SDS011;9744;49.364;7.484;2023-08-20T13:54:51;3.55;;;2.10;;
19219;SDS011;9744;49.364;7.484;2023-08-20T13:57:18;4.57;;;2.25;;
19219;SDS011;9744;49.364;7.484;2023-08-20T13:59:47;3.72;;;2.22;;
19219;SDS011;9744;49.364;7.484;2023-08-20T14:02:14;8.35;;;2.42;;
19219;SDS011;9744;49.364;7.484;2023-08-20T14:04:41;6.20;;;2.47;;
19219;SDS011;9744;49.364;7.484;2023-08-20T14:07:08;7.30;;;2.83;;
19219;SDS011;9744;49.364;7.484;2023-08-20T14:09:35;3.65;;;2.83;;
19219;SDS011;9744;49.364;7.484;2023-08-20T14:12:05;2.80;;;2.15;;
19219;SDS011;9744;49.364;7.484;2023-08-20T14:14:33;3.47;;;2.42;;
19219;SDS011;9744;49.364;7.484;2023-08-20T14:17:01;5.45;;;2.22;;
19219;SDS011;9744;49.364;7.484;2023-08-20T14:19:29;2.92;;;2.00;;
19219;SDS011;9744;49.364;7.484;2023-08-20T14:21:56;8.80;;;1.98;;
19219;SDS011;9744;49.364;7.484;2023-08-20T14:24:23;6.88;;;2.20;;
19219;SDS011;9744;49.364;7.484;2023-08-20T14:26:51;2.55;;;1.88;;
19219;SDS011;9744;49.364;7.484;2023-08-20T14:29:18;5.38;;;2.35;;
19219;SDS011;9744;49.364;7.484;2023-08-20T14:31:45;3.50;;;2.33;;
19219;SDS011;9744;49.364;7.484;2023-08-20T14:34:14;2.92;;;2.10;;
19219;SDS011;9744;49.364;7.484;2023-08-20T14:36:41;2.30;;;2.10;;
19219;SDS011;9744;49.364;7.484;2023-08-20T14:39:08;4.75;;;2.47;;
19219;SDS011;9744;49.364;7.484;2023-08-20T14:41:35;4.32;;;2.35;;
19219;SDS011;9744;49.364;7.484;2023-08-20T14:44:03;4.78;;;2.40;;
19219;SDS011;9744;49.364;7.484;2023-08-20T14:46:31;4.70;;;2.05;;
19219;SDS011;9744;49.364;7.484;2023-08-20T14:48:58;3.60;;;2.10;;
19219;SDS011;9744;49.364;7.484;2023-08-20T14:51:26;6.05;;;2.47;;
19219;SDS011;9744;49.364;7.484;2023-08-20T14:53:53;3.22;;;2.35;;
19219;SDS011;9744;49.364;7.484;2023-08-20T14:56:21;3.78;;;2.15;;
19219;SDS011;9744;49.364;7.484;2023-08-20T14:58:49;2.97;;;2.00;;
19219;SDS011;9744;49.364;7.484;2023-08-20T15:01:16;3.20;;;2.10;;
19219;SDS011;9744;49.364;7.484;2023-08-20T15:03:43;4.40;;;2.28;;
19219;SDS011;9744;49.364;7.484;2023-08-20T15:06:11;3.25;;;2.08;;
19219;SDS011;9744;49.364;7.484;2023-08-20T15:08:41;3.55;;;2.15;;